Time;durP1;ratioP1;P1;durP2;ratioP2;P2;SDS_P1;SDS_P2;PMS_P1;PMS_P2;Temp;Humidity;BMP_temperature;BMP_pressure;BME280_temperature;BME280_humidity;BME280_pressure;Samples;Min_cycle;Max_cycle;Signal;HPM_P1;HPM_P2
2023/10/11 00:05:48;;;;;;;22.85;9.73;;;17.00;99.90;;;;;;5045249;28;20056;-69
2023/10/11 00:08:26;;;;;;;28.63;10.48;;;17.00;99.90;;;;;;5054572;28;20090;-69
2023/10/11 00:10:53;;;;;;;29.50;9.57;;;17.00;99.90;;;;;;5049582;28;20091;-69
2023/10/11 00:13:32;;;;;;;31.02;10.23;;;17.00;99.90;;;;;;5049861;28;20045;-68
2023/10/11 00:16:07;;;;;;;30.92;9.88;;;17.00;99.90;;;;;;5044104;28;20428;-69
2023/10/11 00:18:34;;;;;;;24.40;10.38;;;17.00;99.90;;;;;;5042665;28;20045;-69
2023/10/11 00:23:58;;;;;;;23.20;9.52;;;17.00;99.90;;;;;;5036251;28;20076;-69
2023/10/11 00:26:25;;;;;;;25.17;9.63;;;17.10;99.90;;;;;;5052680;28;20047;-69
2023/10/11 00:28:52;;;;;;;27.67;10.50;;;17.00;99.90;;;;;;5032273;28;20060;-69
2023/10/11 00:31:19;;;;;;;31.63;9.52;;;17.00;99.90;;;;;;5048057;28;20040;-69
2023/10/11 00:33:45;;;;;;;27.55;10.80;;;17.00;99.90;;;;;;5053131;28;20056;-69
2023/10/11 00:36:11;;;;;;;27.73;10.70;;;17.00;99.90;;;;;;5053003;28;20268;-69
2023/10/11 00:38:51;;;;;;;25.33;10.07;;;17.00;99.90;;;;;;5045021;28;20044;-69
2023/10/11 00:41:20;;;;;;;27.80;10.20;;;17.00;99.90;;;;;;5052276;28;20072;-69
2023/10/11 00:43:51;;;;;;;22.30;9.73;;;17.00;99.90;;;;;;5054009;28;20063;-69
2023/10/11 00:46:19;;;;;;;26.83;9.98;;;17.00;99.90;;;;;;5049661;28;20041;-69
2023/10/11 00:51:33;;;;;;;24.58;9.50;;;17.00;99.90;;;;;;5047191;28;20465;-70
2023/10/11 00:54:05;;;;;;;24.30;9.32;;;17.00;99.90;;;;;;5049520;28;20189;-70
2023/10/11 00:56:31;;;;;;;25.25;9.13;;;17.00;99.90;;;;;;5049662;28;20075;-70
2023/10/11 00:59:08;;;;;;;29.42;11.00;;;17.00;99.90;;;;;;5053811;28;20044;-70
2023/10/11 01:01:34;;;;;;;27.10;10.23;;;17.00;99.90;;;;;;5054139;28;20049;-70
2023/10/11 01:04:00;;;;;;;28.13;10.35;;;17.00;99.90;;;;;;5055864;28;20127;-70
2023/10/11 01:06:26;;;;;;;28.95;9.75;;;17.00;99.90;;;;;;5053537;28;20136;-70
2023/10/11 01:08:53;;;;;;;26.88;10.18;;;17.00;99.90;;;;;;5053390;28;20075;-69
2023/10/11 01:11:22;;;;;;;26.75;9.23;;;16.90;99.90;;;;;;5054298;28;20106;-69
2023/10/11 01:13:51;;;;;;;31.48;11.15;;;16.90;99.90;;;;;;5054449;28;20083;-70
2023/10/11 01:16:20;;;;;;;24.35;9.68;;;16.90;99.90;;;;;;5054748;28;20036;-70
2023/10/11 01:18:46;;;;;;;22.88;9.23;;;16.90;99.90;;;;;;5055626;28;20036;-69
2023/10/11 01:21:15;;;;;;;21.70;9.48;;;16.90;99.90;;;;;;5045778;28;20298;-70
2023/10/11 01:23:40;;;;;;;23.15;9.63;;;16.90;99.90;;;;;;5046299;28;20047;-71
2023/10/11 01:26:07;;;;;;;24.08;9.43;;;16.90;99.90;;;;;;5034580;28;20496;-71
2023/10/11 01:28:34;;;;;;;29.02;9.73;;;16.90;99.90;;;;;;5043572;28;20164;-71
2023/10/11 01:31:01;;;;;;;29.15;9.27;;;16.90;99.90;;;;;;5051119;28;20275;-71
2023/10/11 01:33:27;;;;;;;22.83;9.20;;;16.90;99.90;;;;;;5055732;28;20055;-71
2023/10/11 01:35:56;;;;;;;30.42;8.95;;;16.90;99.90;;;;;;5056935;28;20127;-71
2023/10/11 01:38:23;;;;;;;25.45;9.63;;;16.90;99.90;;;;;;5050385;28;20123;-70
2023/10/11 01:40:56;;;;;;;26.00;9.88;;;16.90;99.90;;;;;;5055325;28;20080;-70
2023/10/11 01:43:25;;;;;;;25.90;9.38;;;16.90;99.90;;;;;;5047747;28;20091;-70
2023/10/11 01:45:51;;;;;;;25.15;8.85;;;16.90;99.90;;;;;;5054339;28;20097;-70
2023/10/11 01:48:17;;;;;;;21.80;10.85;;;16.90;99.90;;;;;;5041700;28;20036;-70
2023/10/11 01:50:43;;;;;;;23.80;8.43;;;16.90;99.90;;;;;;5047800;28;20045;-70
2023/10/11 01:53:14;;;;;;;26.58;9.43;;;16.80;99.90;;;;;;5045570;28;20041;-70
2023/10/11 01:55:39;;;;;;;25.95;9.13;;;16.80;99.90;;;;;;5045774;28;20049;-71
2023/10/11 01:58:06;;;;;;;18.48;8.43;;;16.80;99.90;;;;;;5055930;28;20055;-71
2023/10/11 02:00:33;;;;;;;21.67;8.55;;;16.80;99.90;;;;;;5052874;28;20532;-71
2023/10/11 02:02:59;;;;;;;30.30;9.18;;;16.80;99.90;;;;;;5058780;28;20116;-71
2023/10/11 02:05:31;;;;;;;25.05;9.50;;;16.80;99.90;;;;;;5054132;28;20136;-71
2023/10/11 02:08:04;;;;;;;25.75;9.13;;;16.80;99.90;;;;;;5054126;28;20494;-68
2023/10/11 02:10:36;;;;;;;21.88;8.55;;;16.80;99.90;;;;;;5059040;28;23207;-69
2023/10/11 02:13:04;;;;;;;21.17;7.60;;;16.70;99.90;;;;;;5057785;28;20102;-69
2023/10/11 02:15:30;;;;;;;23.85;8.68;;;16.80;99.90;;;;;;5063224;28;20076;-69
2023/10/11 02:17:59;;;;;;;19.27;7.82;;;16.80;99.90;;;;;;5054906;28;20456;-68
2023/10/11 02:20:25;;;;;;;20.05;9.02;;;16.70;99.90;;;;;;5057615;28;20045;-67
2023/10/11 02:22:55;;;;;;;18.40;8.63;;;16.70;99.90;;;;;;5054249;28;20115;-67
2023/10/11 02:25:27;;;;;;;21.80;7.93;;;16.70;99.90;;;;;;5059477;28;20329;-67
2023/10/11 02:27:54;;;;;;;20.65;7.72;;;16.70;99.90;;;;;;5036350;28;20040;-68
2023/10/11 02:30:25;;;;;;;25.67;8.63;;;16.70;99.90;;;;;;5058126;28;20033;-67
2023/10/11 02:32:53;;;;;;;27.65;7.82;;;16.70;99.90;;;;;;5056984;28;20056;-67
2023/10/11 02:35:26;;;;;;;24.25;8.88;;;16.70;99.90;;;;;;5066586;28;20443;-68
2023/10/11 02:37:59;;;;;;;14.43;7.70;;;16.70;99.90;;;;;;5054291;28;20127;-66
2023/10/11 02:40:30;;;;;;;18.98;8.20;;;16.70;99.90;;;;;;5060055;28;20127;-67
2023/10/11 02:43:02;;;;;;;23.48;8.55;;;16.70;99.90;;;;;;5053586;28;20396;-68
2023/10/11 02:45:33;;;;;;;26.42;8.55;;;16.70;99.90;;;;;;5054602;28;20047;-68
2023/10/11 02:47:59;;;;;;;20.15;9.00;;;16.60;99.90;;;;;;5055433;28;20044;-67
2023/10/11 02:50:36;;;;;;;22.60;8.35;;;16.60;99.90;;;;;;5046699;28;20039;-67
2023/10/11 02:53:20;;;;;;;29.95;9.75;;;16.60;99.90;;;;;;5050432;28;20041;-67
2023/10/11 02:55:59;;;;;;;18.92;8.27;;;16.60;99.90;;;;;;5055769;28;20052;-67
2023/10/11 02:58:38;;;;;;;22.80;8.10;;;16.60;99.90;;;;;;5051499;28;20056;-67
2023/10/11 03:01:05;;;;;;;21.95;8.02;;;16.70;99.90;;;;;;5055419;28;20140;-67
2023/10/11 03:03:38;;;;;;;23.98;7.68;;;16.60;99.90;;;;;;5054098;28;20500;-68
2023/10/11 03:06:07;;;;;;;20.17;7.63;;;16.60;99.90;;;;;;5053045;28;20112;-67
2023/10/11 03:08:33;;;;;;;28.15;8.07;;;16.60;99.90;;;;;;5051144;28;20094;-67
2023/10/11 03:11:04;;;;;;;23.35;7.30;;;16.70;99.90;;;;;;5058206;28;20052;-67
2023/10/11 03:13:41;;;;;;;20.50;7.97;;;16.60;99.90;;;;;;5058765;28;20071;-67
2023/10/11 03:16:17;;;;;;;32.10;7.53;;;16.70;99.90;;;;;;5061646;28;20201;-68
2023/10/11 03:18:46;;;;;;;23.50;7.75;;;16.70;99.90;;;;;;5062437;28;20401;-68
2023/10/11 03:21:16;;;;;;;24.60;7.55;;;16.70;99.90;;;;;;5058578;28;20080;-67
2023/10/11 03:23:47;;;;;;;26.15;8.20;;;16.70;99.90;;;;;;5058833;28;20064;-67
2023/10/11 03:26:23;;;;;;;23.70;7.20;;;16.70;99.90;;;;;;5056809;28;20785;-67
2023/10/11 03:28:58;;;;;;;21.52;7.53;;;16.70;99.90;;;;;;5055794;28;20040;-67
2023/10/11 03:31:31;;;;;;;19.98;7.43;;;16.70;99.90;;;;;;5049984;28;20048;-67
2023/10/11 03:34:17;;;;;;;22.85;7.88;;;16.70;99.90;;;;;;5053484;28;20132;-67
2023/10/11 03:36:49;;;;;;;19.60;7.53;;;16.70;99.90;;;;;;5048943;28;20041;-67
2023/10/11 03:42:17;;;;;;;23.33;6.82;;;16.70;99.90;;;;;;5038223;28;20130;-67
2023/10/11 03:44:47;;;;;;;22.70;7.55;;;16.70;99.90;;;;;;5054919;28;20044;-67
2023/10/11 03:47:14;;;;;;;24.10;7.03;;;16.70;99.90;;;;;;5057503;28;20090;-67
2023/10/11 03:49:52;;;;;;;18.95;6.97;;;16.70;99.90;;;;;;5059369;28;20146;-67
2023/10/11 03:52:30;;;;;;;25.20;7.25;;;16.70;99.90;;;;;;5047067;28;20103;-67
2023/10/11 03:55:09;;;;;;;20.55;6.25;;;16.70;99.90;;;;;;5033121;28;20501;-67
2023/10/11 03:57:40;;;;;;;16.38;6.82;;;16.70;99.90;;;;;;5056272;28;20048;-67
2023/10/11 04:00:38;;;;;;;24.00;6.95;;;16.70;99.90;;;;;;5056535;28;20043;-68
2023/10/11 04:03:04;;;;;;;14.57;6.35;;;16.70;99.90;;;;;;5056565;28;20067;-68
2023/10/11 04:05:36;;;;;;;22.95;7.10;;;16.70;99.90;;;;;;5054123;28;20044;-68
2023/10/11 04:08:05;;;;;;;15.32;6.22;;;16.70;99.90;;;;;;5061296;28;20127;-68
2023/10/11 04:10:43;;;;;;;16.27;6.70;;;16.70;99.90;;;;;;5056774;28;20044;-68
2023/10/11 04:13:14;;;;;;;17.60;6.65;;;16.70;99.90;;;;;;5050742;28;20037;-67
2023/10/11 04:15:44;;;;;;;18.75;6.50;;;16.70;99.90;;;;;;5052677;28;20044;-68
2023/10/11 04:23:35;;;;;;;20.92;7.15;;;16.70;99.90;;;;;;5061180;28;20449;-67
2023/10/11 04:26:22;;;;;;;22.77;6.95;;;16.70;99.90;;;;;;5049389;28;20206;-67
2023/10/11 04:28:51;;;;;;;18.90;7.05;;;16.70;99.90;;;;;;5050556;28;20123;-68
2023/10/11 04:31:36;;;;;;;19.02;6.25;;;16.70;99.90;;;;;;5054595;28;20512;-67
2023/10/11 04:34:11;;;;;;;13.23;6.55;;;16.70;99.90;;;;;;5054491;28;20047;-67
2023/10/11 04:36:43;;;;;;;17.92;6.20;;;16.70;99.90;;;;;;5058856;28;20041;-67
2023/10/11 04:39:27;;;;;;;16.60;6.03;;;16.60;99.90;;;;;;5049421;28;20082;-68
2023/10/11 04:41:57;;;;;;;14.55;5.60;;;16.70;99.90;;;;;;5059656;28;20048;-69
2023/10/11 04:44:42;;;;;;;23.95;7.32;;;16.70;99.90;;;;;;5027680;28;20068;-69
2023/10/11 04:47:13;;;;;;;20.45;6.78;;;16.70;99.90;;;;;;5048279;28;20045;-69
2023/10/11 04:49:44;;;;;;;17.25;6.05;;;16.70;99.90;;;;;;5054981;28;20544;-70
2023/10/11 04:52:22;;;;;;;16.58;6.35;;;16.70;99.90;;;;;;5045797;28;20033;-69
2023/10/11 04:54:55;;;;;;;21.40;6.10;;;16.70;99.90;;;;;;5054182;28;20048;-70
2023/10/11 04:57:41;;;;;;;12.73;5.90;;;16.70;99.90;;;;;;5058006;28;20186;-70
2023/10/11 05:00:08;;;;;;;16.95;5.80;;;16.70;99.90;;;;;;5057690;28;20178;-70
2023/10/11 05:02:36;;;;;;;26.40;6.60;;;16.70;99.90;;;;;;5054642;28;20067;-70
2023/10/11 05:05:10;;;;;;;16.15;5.80;;;16.70;99.90;;;;;;5051102;28;20047;-70
2023/10/11 05:07:42;;;;;;;16.15;6.18;;;16.70;99.90;;;;;;5054228;28;20033;-70
2023/10/11 05:12:57;;;;;;;21.50;6.68;;;16.70;99.90;;;;;;5055468;28;20361;-70
2023/10/11 05:15:29;;;;;;;18.50;6.47;;;16.60;99.90;;;;;;5053544;28;20041;-70
2023/10/11 05:18:06;;;;;;;21.60;6.05;;;16.60;99.90;;;;;;5051276;28;20493;-70
2023/10/11 05:23:11;;;;;;;22.45;6.95;;;16.60;99.90;;;;;;5054795;28;20044;-70
2023/10/11 05:25:56;;;;;;;19.77;6.95;;;16.60;99.90;;;;;;5051107;28;20045;-70
2023/10/11 05:31:01;;;;;;;16.15;6.80;;;16.60;99.90;;;;;;5053941;28;20036;-71
2023/10/11 05:33:57;;;;;;;16.10;6.57;;;16.60;99.90;;;;;;5056258;28;20037;-70
2023/10/11 05:50:49;;;;;;;26.13;7.55;;;16.60;99.90;;;;;;5055261;28;20294;-71
2023/10/11 05:50:56;;;;;;;23.88;7.43;;;16.60;99.90;;;;;;5048781;28;20041;-71
2023/10/11 05:53:24;;;;;;;23.67;7.38;;;16.70;99.90;;;;;;5051301;28;20054;-71
2023/10/11 05:55:52;;;;;;;17.77;6.55;;;16.70;99.90;;;;;;5052584;28;20053;-70
2023/10/11 05:58:19;;;;;;;18.67;6.88;;;16.70;99.90;;;;;;5058785;28;20094;-71
2023/10/11 06:00:49;;;;;;;23.15;7.57;;;16.70;99.90;;;;;;5054046;28;20204;-70
2023/10/11 06:03:16;;;;;;;22.13;6.45;;;16.70;99.90;;;;;;5054417;28;20081;-70
2023/10/11 06:05:51;;;;;;;20.65;6.88;;;16.70;99.90;;;;;;5051064;28;20053;-70
2023/10/11 06:08:16;;;;;;;22.77;6.68;;;16.70;99.90;;;;;;5028838;28;20033;-71
2023/10/11 06:10:43;;;;;;;18.40;6.95;;;16.70;99.90;;;;;;5056109;28;20036;-70
2023/10/11 06:13:14;;;;;;;16.67;6.80;;;16.80;99.90;;;;;;5056314;28;20037;-71
2023/10/11 06:15:45;;;;;;;21.55;7.20;;;16.80;99.90;;;;;;5058716;28;20044;-71
2023/10/11 06:18:36;;;;;;;20.27;6.43;;;16.80;99.90;;;;;;5053895;28;20103;-70
2023/10/11 06:21:05;;;;;;;18.05;6.60;;;16.80;99.90;;;;;;5053562;28;20048;-70
2023/10/11 06:23:32;;;;;;;20.27;7.05;;;16.90;99.90;;;;;;5045672;28;20499;-69
2023/10/11 06:26:28;;;;;;;18.88;7.30;;;16.90;99.90;;;;;;5054518;28;20125;-69
2023/10/11 06:29:02;;;;;;;18.42;7.35;;;16.90;99.90;;;;;;5051877;28;20033;-70
2023/10/11 06:31:33;;;;;;;24.00;7.53;;;16.90;99.90;;;;;;5053210;28;20044;-70
2023/10/11 06:34:15;;;;;;;21.52;7.10;;;16.90;99.90;;;;;;5052675;28;20509;-70
2023/10/11 06:36:50;;;;;;;13.35;5.97;;;16.90;99.90;;;;;;5051919;28;20535;-70
2023/10/11 06:42:21;;;;;;;22.88;6.72;;;17.00;99.90;;;;;;5052812;28;20118;-70
2023/10/11 06:44:59;;;;;;;23.20;7.45;;;17.00;99.90;;;;;;5055842;28;20073;-70
2023/10/11 06:47:26;;;;;;;18.75;6.78;;;17.00;99.90;;;;;;5037263;28;20500;-70
2023/10/11 06:49:56;;;;;;;19.60;7.30;;;17.00;99.90;;;;;;5047607;28;20049;-71
2023/10/11 06:52:25;;;;;;;;;;;17.00;99.90;;;;;;5059490;28;20530;-70
2023/10/11 06:57:39;;;;;;;22.52;6.40;;;17.10;99.90;;;;;;5058560;28;20134;-71
2023/10/11 07:00:20;;;;;;;21.15;6.57;;;17.00;99.90;;;;;;5053830;28;20040;-69
2023/10/11 07:03:21;;;;;;;20.30;6.97;;;17.10;99.90;;;;;;5055011;28;20170;-70
2023/10/11 07:05:59;;;;;;;27.10;8.00;;;17.10;99.90;;;;;;5051263;28;20156;-69
2023/10/11 07:08:48;;;;;;;16.75;7.18;;;17.10;99.90;;;;;;5045272;28;20089;-70
2023/10/11 07:11:36;;;;;;;31.20;7.78;;;17.10;99.90;;;;;;5049009;28;20049;-70
2023/10/11 07:14:05;;;;;;;19.73;7.63;;;17.20;99.90;;;;;;5060662;28;20106;-70
2023/10/11 07:16:31;;;;;;;24.38;9.18;;;17.20;99.90;;;;;;5055612;28;20059;-70
2023/10/11 07:18:58;;;;;;;18.60;6.85;;;17.20;99.90;;;;;;5051188;28;20043;-69
2023/10/11 07:26:56;;;;;;;21.98;6.05;;;17.30;99.90;;;;;;5063809;28;20282;-70
2023/10/11 07:29:22;;;;;;;17.13;6.07;;;17.30;99.90;;;;;;5039259;28;20127;-70
2023/10/11 07:31:51;;;;;;;;;;;17.30;99.90;;;;;;5054150;28;20044;-70
2023/10/11 07:34:20;;;;;;;17.65;7.00;;;17.30;99.90;;;;;;5054753;28;20187;-71
2023/10/11 07:36:49;;;;;;;18.60;7.07;;;17.30;99.90;;;;;;5060452;28;20072;-71
2023/10/11 07:39:19;;;;;;;17.90;7.32;;;17.30;99.90;;;;;;5051668;28;20048;-71
2023/10/11 07:41:49;;;;;;;20.52;7.00;;;17.40;99.90;;;;;;5053745;28;20113;-71
2023/10/11 07:44:19;;;;;;;17.80;6.18;;;17.40;99.90;;;;;;5057294;28;20233;-71
2023/10/11 07:46:45;;;;;;;18.92;7.13;;;17.40;99.90;;;;;;5051013;28;20040;-70
2023/10/11 07:49:22;;;;;;;12.43;6.65;;;17.40;99.90;;;;;;5055524;28;20100;-70
2023/10/11 07:51:53;;;;;;;21.27;7.05;;;17.40;99.90;;;;;;5056110;28;20545;-70
2023/10/11 07:54:21;;;;;;;20.50;6.10;;;17.40;99.90;;;;;;5051676;28;20036;-70
2023/10/11 07:56:57;;;;;;;20.50;6.30;;;17.50;99.90;;;;;;5054507;28;20063;-71
2023/10/11 07:59:27;;;;;;;15.17;7.00;;;17.50;99.90;;;;;;5034090;28;20493;-71
2023/10/11 08:01:59;;;;;;;15.15;6.18;;;17.50;99.90;;;;;;5040678;28;20045;-70
2023/10/11 08:04:28;;;;;;;20.45;7.20;;;17.50;99.90;;;;;;5052150;28;20059;-71
2023/10/11 08:07:03;;;;;;;22.65;7.15;;;17.50;99.90;;;;;;5053556;28;20129;-71
2023/10/11 08:09:45;;;;;;;19.83;5.70;;;17.50;99.90;;;;;;5053395;28;20127;-71
2023/10/11 08:12:20;;;;;;;17.13;5.97;;;17.50;99.90;;;;;;5051669;28;20536;-71
2023/10/11 08:14:47;;;;;;;17.50;7.00;;;17.60;99.90;;;;;;5050783;28;20060;-71
2023/10/11 08:17:17;;;;;;;19.88;6.43;;;17.60;99.90;;;;;;5052304;28;20094;-73
2023/10/11 08:19:44;;;;;;;19.65;6.47;;;17.60;99.90;;;;;;5052386;28;20095;-71
2023/10/11 08:22:14;;;;;;;20.08;6.57;;;17.50;99.90;;;;;;5051940;28;20032;-72
2023/10/11 08:24:49;;;;;;;15.30;6.75;;;17.60;99.90;;;;;;5052212;28;20481;-71
2023/10/11 08:27:27;;;;;;;14.30;6.10;;;17.60;99.90;;;;;;5048828;28;20040;-71
2023/10/11 08:30:09;;;;;;;14.93;6.03;;;17.50;99.90;;;;;;5050378;28;20126;-72
2023/10/11 08:32:42;;;;;;;15.20;6.57;;;17.50;99.90;;;;;;5050579;28;20532;-71
2023/10/11 08:35:10;;;;;;;11.10;5.20;;;17.50;99.90;;;;;;5060551;28;20068;-71
2023/10/11 08:37:37;;;;;;;17.98;5.95;;;17.60;99.90;;;;;;5051301;28;20485;-71
2023/10/11 08:40:20;;;;;;;12.00;5.18;;;17.50;99.90;;;;;;5052391;28;20094;-71
2023/10/11 08:42:50;;;;;;;12.00;4.65;;;17.50;99.90;;;;;;5058261;28;20451;-71
2023/10/11 08:45:41;;;;;;;12.98;5.20;;;17.50;99.90;;;;;;5039032;28;20048;-71
2023/10/11 08:48:08;;;;;;;11.57;4.80;;;17.60;99.90;;;;;;5050936;28;20040;-71
2023/10/11 08:50:35;;;;;;;12.13;5.20;;;17.50;99.90;;;;;;5051702;28;20497;-71
2023/10/11 08:53:07;;;;;;;12.50;5.20;;;17.60;99.90;;;;;;5056045;28;20504;-71
2023/10/11 08:55:35;;;;;;;10.48;4.90;;;17.60;99.90;;;;;;5048193;28;20060;-71
2023/10/11 08:58:23;;;;;;;8.93;5.00;;;17.50;99.90;;;;;;5053580;28;20049;-71
2023/10/11 09:00:54;;;;;;;12.00;5.25;;;17.50;99.90;;;;;;5051228;28;20072;-71
2023/10/11 09:03:23;;;;;;;10.68;4.88;;;17.50;99.90;;;;;;5051051;28;20416;-71
2023/10/11 09:06:00;;;;;;;10.40;4.85;;;17.50;99.90;;;;;;5053659;28;20515;-71
2023/10/11 09:08:31;;;;;;;10.98;5.07;;;17.60;99.90;;;;;;5054483;28;20237;-71
2023/10/11 09:11:11;;;;;;;13.57;5.20;;;17.50;99.90;;;;;;5051583;28;20120;-71
2023/10/11 09:13:37;;;;;;;10.52;5.25;;;17.60;99.90;;;;;;5051393;28;20048;-71
2023/10/11 09:16:12;;;;;;;15.68;5.32;;;17.60;99.90;;;;;;5047286;28;20055;-71
2023/10/11 09:18:46;;;;;;;10.50;5.15;;;17.70;99.90;;;;;;5038961;28;20113;-71
2023/10/11 09:21:15;;;;;;;13.32;5.78;;;17.70;99.90;;;;;;5056863;28;20129;-71
2023/10/11 09:23:49;;;;;;;15.07;5.47;;;17.70;99.90;;;;;;5052769;28;20124;-72
2023/10/11 09:26:32;;;;;;;13.00;4.97;;;17.80;99.90;;;;;;5049021;28;20044;-72
2023/10/11 09:29:02;;;;;;;15.27;5.20;;;17.90;99.90;;;;;;5051672;28;20075;-72
2023/10/11 09:31:35;;;;;;;19.90;5.88;;;17.90;99.90;;;;;;5042018;28;20320;-72
2023/10/11 09:34:05;;;;;;;13.30;4.75;;;18.00;99.90;;;;;;5037647;28;20038;-72
2023/10/11 09:36:31;;;;;;;12.98;5.30;;;18.00;99.90;;;;;;5054219;28;20071;-72
2023/10/11 09:39:02;;;;;;;;;;;18.00;99.90;;;;;;5054526;28;20520;-72
2023/10/11 09:41:42;;;;;;;10.73;4.45;;;18.10;99.90;;;;;;5048032;28;19936;-72
2023/10/11 09:44:11;;;;;;;12.38;4.93;;;18.10;99.90;;;;;;5047673;28;20029;-72
2023/10/11 09:46:37;;;;;;;10.45;4.55;;;18.10;99.90;;;;;;5047599;28;20502;-72
2023/10/11 09:49:04;;;;;;;12.23;4.97;;;18.10;99.90;;;;;;5054611;28;20516;-72
2023/10/11 09:51:31;;;;;;;12.25;4.55;;;18.10;99.90;;;;;;5054953;28;20136;-72
2023/10/11 09:54:06;;;;;;;7.72;4.03;;;18.20;99.90;;;;;;5048973;28;20044;-72
2023/10/11 09:56:49;;;;;;;14.15;4.35;;;18.20;99.90;;;;;;5052000;28;20132;-72
2023/10/11 09:59:47;;;;;;;9.60;4.22;;;18.20;99.90;;;;;;5052278;28;20109;-72
2023/10/11 10:02:34;;;;;;;8.30;3.50;;;18.20;99.90;;;;;;5047914;28;20103;-72
2023/10/11 10:05:04;;;;;;;11.90;3.38;;;18.30;99.90;;;;;;5050109;28;20417;-72
2023/10/11 10:07:42;;;;;;;16.60;4.35;;;18.30;99.90;;;;;;5053985;28;20036;-75
2023/10/11 10:10:13;;;;;;;13.98;4.13;;;18.20;99.90;;;;;;5038810;28;20040;-71
2023/10/11 10:13:09;;;;;;;9.05;3.67;;;18.20;99.90;;;;;;5056096;28;20537;-71
2023/10/11 10:15:47;;;;;;;9.93;4.35;;;18.20;99.90;;;;;;5053954;28;20041;-69
2023/10/11 10:18:20;;;;;;;6.85;3.55;;;18.20;99.90;;;;;;5040901;28;20041;-70
2023/10/11 10:20:58;;;;;;;8.70;3.80;;;18.20;99.90;;;;;;5047706;28;20044;-70
2023/10/11 10:23:27;;;;;;;7.65;3.28;;;18.30;99.90;;;;;;5054241;28;20079;-69
2023/10/11 10:26:21;;;;;;;10.18;3.55;;;18.30;99.90;;;;;;5050830;28;20132;-70
2023/10/11 10:28:51;;;;;;;7.28;3.50;;;18.30;99.90;;;;;;5056309;28;20052;-69
2023/10/11 10:31:18;;;;;;;7.82;3.10;;;18.50;99.90;;;;;;5058758;28;20088;-69
2023/10/11 10:33:51;;;;;;;9.15;3.42;;;18.50;99.90;;;;;;5057773;28;20037;-69
2023/10/11 10:36:28;;;;;;;8.32;3.00;;;18.60;99.90;;;;;;5060982;28;20040;-69
2023/10/11 10:39:00;;;;;;;10.23;3.15;;;18.80;99.90;;;;;;5060783;28;20493;-69
2023/10/11 10:41:33;;;;;;;7.50;2.88;;;18.90;99.90;;;;;;5039350;28;20051;-69
2023/10/11 10:44:21;;;;;;;9.60;2.67;;;18.90;99.90;;;;;;5049900;28;20055;-69
2023/10/11 10:46:54;;;;;;;10.95;3.17;;;19.00;99.90;;;;;;5049188;28;20417;-70
2023/10/11 10:49:23;;;;;;;7.45;2.60;;;19.10;99.90;;;;;;5058291;28;20478;-70
2023/10/11 10:51:48;;;;;;;6.40;2.78;;;19.30;99.90;;;;;;5048510;28;20037;-69
2023/10/11 10:54:17;;;;;;;6.40;2.45;;;19.40;99.90;;;;;;5053930;28;20045;-69
2023/10/11 10:56:47;;;;;;;10.52;2.70;;;19.40;99.90;;;;;;5050466;28;20059;-69
2023/10/11 10:59:15;;;;;;;7.95;2.63;;;19.50;99.90;;;;;;5050059;28;20052;-69
2023/10/11 11:01:44;;;;;;;5.15;2.33;;;19.50;99.90;;;;;;5045359;28;20051;-69
2023/10/11 11:04:11;;;;;;;7.00;2.78;;;19.60;99.90;;;;;;5044793;28;20036;-69
2023/10/11 11:06:48;;;;;;;12.13;2.42;;;19.60;99.90;;;;;;5056843;28;20060;-70
2023/10/11 11:09:25;;;;;;;5.68;2.20;;;19.60;99.90;;;;;;5056874;28;20393;-69
2023/10/11 11:12:02;;;;;;;7.10;2.95;;;19.60;99.90;;;;;;5046940;28;20044;-69
2023/10/11 11:14:27;;;;;;;5.82;2.67;;;19.60;99.90;;;;;;5055948;28;20032;-70
2023/10/11 11:16:58;;;;;;;8.73;2.70;;;19.60;99.90;;;;;;5046187;28;20060;-69
2023/10/11 11:19:26;;;;;;;6.07;2.92;;;19.60;99.90;;;;;;5051833;28;20048;-70
2023/10/11 11:22:12;;;;;;;4.63;2.20;;;19.60;99.90;;;;;;5055292;28;20041;-69
2023/10/11 11:24:52;;;;;;;6.35;2.88;;;19.60;99.90;;;;;;5055565;28;20108;-70
2023/10/11 11:27:25;;;;;;;7.32;2.13;;;19.60;99.90;;;;;;5039514;28;20041;-69
2023/10/11 11:29:52;;;;;;;5.70;2.30;;;19.60;99.90;;;;;;5049670;28;20438;-69
2023/10/11 11:32:37;;;;;;;7.30;2.50;;;19.60;99.90;;;;;;5057218;28;20040;-70
2023/10/11 11:35:10;;;;;;;7.53;2.27;;;19.50;99.90;;;;;;5055586;28;20048;-70
2023/10/11 11:38:01;;;;;;;8.60;2.05;;;19.50;99.90;;;;;;5058507;28;20064;-70
2023/10/11 11:40:27;;;;;;;6.63;2.22;;;19.50;99.90;;;;;;5055390;28;20037;-70
2023/10/11 11:42:53;;;;;;;5.72;2.80;;;19.40;99.90;;;;;;5054460;28;20090;-69
2023/10/11 11:45:27;;;;;;;5.32;1.90;;;19.40;99.90;;;;;;5063117;28;20097;-70
2023/10/11 11:47:55;;;;;;;8.45;2.30;;;19.40;99.90;;;;;;5055161;28;20045;-69
2023/10/11 11:50:25;;;;;;;6.97;2.67;;;19.50;99.90;;;;;;5062839;28;20127;-69
2023/10/11 11:52:51;;;;;;;9.63;2.50;;;19.60;99.90;;;;;;5058321;28;20040;-70
2023/10/11 11:55:22;;;;;;;6.13;2.38;;;19.70;99.90;;;;;;5057246;28;20044;-69
2023/10/11 11:57:48;;;;;;;8.27;2.65;;;19.90;99.90;;;;;;5052573;28;20045;-70
2023/10/11 12:02:53;;;;;;;6.03;2.63;;;19.90;99.90;;;;;;5049373;28;20048;-69
2023/10/11 12:05:19;;;;;;;5.32;2.15;;;20.00;99.90;;;;;;5054382;28;20033;-68
2023/10/11 12:07:46;;;;;;;9.15;2.35;;;20.00;99.90;;;;;;5049384;28;20485;-68
2023/10/11 12:10:23;;;;;;;5.72;1.83;;;20.00;99.90;;;;;;5054081;28;20505;-68
2023/10/11 12:13:05;;;;;;;6.25;2.67;;;19.90;99.90;;;;;;5048363;28;20048;-70
2023/10/11 12:15:32;;;;;;;5.85;1.80;;;19.90;99.90;;;;;;5037417;28;20048;-68
2023/10/11 12:17:58;;;;;;;11.82;2.85;;;20.00;99.90;;;;;;5054961;28;20455;-68
2023/10/11 12:20:33;;;;;;;7.85;2.58;;;19.90;99.90;;;;;;5052183;28;20047;-68
2023/10/11 12:23:07;;;;;;;7.47;1.80;;;19.90;99.90;;;;;;5047819;28;20464;-68
2023/10/11 12:25:37;;;;;;;7.10;2.55;;;19.90;99.90;;;;;;5041537;28;20048;-68
2023/10/11 12:28:08;;;;;;;6.85;2.00;;;19.80;99.90;;;;;;5056910;28;20125;-68
2023/10/11 12:30:34;;;;;;;5.93;2.05;;;19.80;99.90;;;;;;5030528;28;20036;-68
2023/10/11 12:33:06;;;;;;;11.63;2.80;;;19.70;99.90;;;;;;5053829;28;20497;-68
2023/10/11 12:35:41;;;;;;;8.50;2.10;;;19.70;99.90;;;;;;5050958;28;20044;-68
2023/10/11 12:38:12;;;;;;;7.25;2.00;;;19.60;99.90;;;;;;5058188;28;20036;-69
2023/10/11 12:40:41;;;;;;;6.10;2.10;;;19.60;99.90;;;;;;5054138;28;20389;-68
2023/10/11 12:43:07;;;;;;;9.93;2.03;;;19.60;99.90;;;;;;5048544;28;20085;-69
2023/10/11 12:45:33;;;;;;;;;;;19.60;99.90;;;;;;5057744;28;20316;-68
2023/10/11 12:48:02;;;;;;;9.27;2.77;;;19.70;99.90;;;;;;5054110;28;20009;-68
2023/10/11 12:50:28;;;;;;;8.13;2.50;;;19.70;99.90;;;;;;5051971;28;20086;-68
2023/10/11 12:52:53;;;;;;;6.45;2.35;;;19.80;99.90;;;;;;5054279;28;20052;-69
2023/10/11 12:55:20;;;;;;;5.90;2.08;;;19.80;99.90;;;;;;5055309;28;20473;-68
2023/10/11 12:57:48;;;;;;;9.75;2.58;;;19.80;99.90;;;;;;5056184;28;20400;-68
2023/10/11 13:00:37;;;;;;;6.10;2.72;;;19.80;99.90;;;;;;5050329;28;20429;-68
2023/10/11 13:03:13;;;;;;;6.35;2.53;;;19.70;99.90;;;;;;5047510;28;20054;-69
2023/10/11 13:05:39;;;;;;;6.55;2.72;;;19.70;99.90;;;;;;5047141;28;20056;-69
2023/10/11 13:08:05;;;;;;;9.40;3.00;;;19.70;99.90;;;;;;5051496;28;20445;-68
2023/10/11 13:10:33;;;;;;;8.48;2.83;;;19.70;99.90;;;;;;5045165;28;20070;-68
2023/10/11 13:12:59;;;;;;;7.28;2.88;;;19.60;99.90;;;;;;5052196;28;20404;-68
2023/10/11 13:15:27;;;;;;;8.65;2.65;;;19.50;99.90;;;;;;5051015;28;20051;-68
2023/10/11 13:17:53;;;;;;;7.97;2.72;;;19.60;99.90;;;;;;5049237;28;20068;-69
2023/10/11 13:20:19;;;;;;;8.85;2.65;;;19.60;99.90;;;;;;5046197;28;20032;-68
2023/10/11 13:22:47;;;;;;;8.80;2.70;;;19.50;99.90;;;;;;5058306;28;20108;-68
2023/10/11 13:25:23;;;;;;;9.57;3.00;;;19.50;99.90;;;;;;5047566;28;20565;-69
2023/10/11 13:27:49;;;;;;;9.55;3.00;;;19.40;99.90;;;;;;5050152;28;20090;-68
2023/10/11 13:30:15;;;;;;;9.18;2.83;;;19.40;99.90;;;;;;5050813;28;22333;-69
2023/10/11 13:32:41;;;;;;;9.02;3.17;;;19.40;99.90;;;;;;5047744;28;20064;-69
2023/10/11 13:35:12;;;;;;;7.30;2.58;;;19.40;99.90;;;;;;5049020;28;20060;-69
2023/10/11 13:37:38;;;;;;;7.40;2.92;;;19.40;99.90;;;;;;5054635;28;20037;-69
2023/10/11 13:40:05;;;;;;;8.02;2.92;;;19.40;99.90;;;;;;5036682;28;20041;-68
2023/10/11 13:42:37;;;;;;;8.75;2.92;;;19.40;99.90;;;;;;5050060;28;20508;-68
2023/10/11 13:45:08;;;;;;;7.45;3.13;;;19.40;99.90;;;;;;5051806;28;20051;-68
2023/10/11 13:47:36;;;;;;;10.15;2.30;;;19.40;99.90;;;;;;5054780;28;20067;-68
2023/10/11 13:50:08;;;;;;;7.00;2.88;;;19.40;99.90;;;;;;5049246;28;20098;-68
2023/10/11 13:52:37;;;;;;;10.48;2.70;;;19.40;99.90;;;;;;5057548;28;21317;-71
2023/10/11 13:55:11;;;;;;;7.03;2.42;;;19.40;99.90;;;;;;5048442;28;20448;-69
2023/10/11 13:57:37;;;;;;;8.00;2.10;;;19.40;99.90;;;;;;5050154;28;20115;-69